world map with LIRU marked

LIRU - Airport

This information may not be accurate or current and is not valid for navigation or flight planning. No warranty of fitness for any purpose is made or implied.

flag of Lazioflag of Italy

Donate via PayPal

Additional information is available on the NEW Great Circle Mapper

Location
City:  Rome, Lazio, Italy
Near (Alt.):Roma
Name:Urbe (City, M Moris)
ICAO:LIRU

Details
Type:Airport (Aerodrome, Airfield)
Latitude:41°57'07"N (41.951946)
Longitude:12°29'56"E (12.498889)
Datum:WGS 1984
Elevation:55 ft (17 m)
Runways:1
Longest:3543 × 98 ft (1080 × 30 m)

Time
Timezone:UTC+1 (DST+4)
Local Time:

Weather
METAR:LIRU  041350Z 01013KT CAVOK 15/04 Q1015

Related Locations
Nearby:
Farthest:CHT: 11968 mi / 19261 km
Waitangi [Tuuta], CIT, NZ

Find:

   beyond  
but within

Other Information
Maps:
Sources:

  


 


Great Circle Mapper   Great Circle Mapper
Great Circle Mapper FAQ   Great Circle Mapper FAQ
  Karl's Home Page
KLSē   KLSē Home
   GC on Facebook
Airlines of the World   Airlines of the World
Donate via PayPal


Copyright © 2004-2019, Karl L. Swartz. All rights reserved.
All trademarks mentioned herein belong to their respective owners.

Please see credits for attribution and copyright information.

Karl Swartz <karl@kls2.com>
  Powered by FreeBSD
Valid HTML 4.01!
Labeled with ICRA
hCard Microformat
Geo Microformat